sensor_id;sensor_type;location;lat;lon;timestamp;P1;durP1;ratioP1;P2;durP2;ratioP2
16975;SDS011;8604;48.148;-1.786;2023-12-20T00:00:48;10.40;;;3.07;;
16975;SDS011;8604;48.148;-1.786;2023-12-20T00:03:16;10.63;;;2.47;;
16975;SDS011;8604;48.148;-1.786;2023-12-20T00:05:44;11.13;;;3.07;;
16975;SDS011;8604;48.148;-1.786;2023-12-20T00:08:13;10.20;;;2.97;;
16975;SDS011;8604;48.148;-1.786;2023-12-20T00:10:41;9.87;;;2.83;;
16975;SDS011;8604;48.148;-1.786;2023-12-20T00:13:11;11.63;;;2.60;;
16975;SDS011;8604;48.148;-1.786;2023-12-20T00:15:40;8.43;;;2.33;;
16975;SDS011;8604;48.148;-1.786;2023-12-20T00:18:08;5.97;;;2.10;;
16975;SDS011;8604;48.148;-1.786;2023-12-20T00:20:37;8.13;;;1.90;;
16975;SDS011;8604;48.148;-1.786;2023-12-20T00:23:05;7.27;;;2.10;;
16975;SDS011;8604;48.148;-1.786;2023-12-20T00:25:34;7.70;;;1.97;;
16975;SDS011;8604;48.148;-1.786;2023-12-20T00:28:02;9.10;;;2.20;;
16975;SDS011;8604;48.148;-1.786;2023-12-20T00:30:32;8.80;;;2.00;;
16975;SDS011;8604;48.148;-1.786;2023-12-20T00:33:01;7.97;;;2.07;;
16975;SDS011;8604;48.148;-1.786;2023-12-20T00:35:30;7.67;;;2.07;;
16975;SDS011;8604;48.148;-1.786;2023-12-20T00:37:58;9.63;;;1.90;;
16975;SDS011;8604;48.148;-1.786;2023-12-20T00:40:26;7.80;;;1.90;;
16975;SDS011;8604;48.148;-1.786;2023-12-20T00:42:55;10.80;;;2.30;;
16975;SDS011;8604;48.148;-1.786;2023-12-20T00:45:23;8.13;;;2.10;;
16975;SDS011;8604;48.148;-1.786;2023-12-20T00:47:53;5.57;;;1.73;;
16975;SDS011;8604;48.148;-1.786;2023-12-20T00:50:21;5.70;;;1.63;;
16975;SDS011;8604;48.148;-1.786;2023-12-20T00:52:53;6.00;;;1.90;;
16975;SDS011;8604;48.148;-1.786;2023-12-20T00:55:22;4.83;;;1.50;;
16975;SDS011;8604;48.148;-1.786;2023-12-20T00:57:51;6.03;;;1.73;;
16975;SDS011;8604;48.148;-1.786;2023-12-20T01:00:20;5.63;;;1.80;;
16975;SDS011;8604;48.148;-1.786;2023-12-20T01:02:48;8.33;;;1.90;;
16975;SDS011;8604;48.148;-1.786;2023-12-20T01:05:19;7.27;;;2.10;;
16975;SDS011;8604;48.148;-1.786;2023-12-20T01:07:50;6.60;;;1.80;;
16975;SDS011;8604;48.148;-1.786;2023-12-20T01:10:18;8.70;;;2.10;;
16975;SDS011;8604;48.148;-1.786;2023-12-20T01:12:47;6.53;;;2.03;;
16975;SDS011;8604;48.148;-1.786;2023-12-20T01:15:15;7.47;;;2.10;;
16975;SDS011;8604;48.148;-1.786;2023-12-20T01:18:02;7.50;;;2.07;;
16975;SDS011;8604;48.148;-1.786;2023-12-20T01:20:32;7.70;;;1.90;;
16975;SDS011;8604;48.148;-1.786;2023-12-20T01:23:01;8.53;;;2.03;;
16975;SDS011;8604;48.148;-1.786;2023-12-20T01:25:29;8.73;;;2.07;;
16975;SDS011;8604;48.148;-1.786;2023-12-20T01:27:57;9.87;;;2.70;;
16975;SDS011;8604;48.148;-1.786;2023-12-20T01:30:26;8.50;;;2.27;;
16975;SDS011;8604;48.148;-1.786;2023-12-20T01:32:54;10.60;;;2.57;;
16975;SDS011;8604;48.148;-1.786;2023-12-20T01:35:23;9.57;;;2.40;;
16975;SDS011;8604;48.148;-1.786;2023-12-20T01:37:53;8.97;;;2.20;;
16975;SDS011;8604;48.148;-1.786;2023-12-20T01:40:23;9.90;;;2.37;;
16975;SDS011;8604;48.148;-1.786;2023-12-20T01:42:57;11.50;;;2.70;;
16975;SDS011;8604;48.148;-1.786;2023-12-20T01:45:27;10.30;;;2.80;;
16975;SDS011;8604;48.148;-1.786;2023-12-20T01:47:56;12.97;;;3.00;;
16975;SDS011;8604;48.148;-1.786;2023-12-20T01:50:26;9.47;;;2.70;;
16975;SDS011;8604;48.148;-1.786;2023-12-20T01:52:57;9.67;;;2.67;;
16975;SDS011;8604;48.148;-1.786;2023-12-20T01:55:27;11.83;;;3.00;;
16975;SDS011;8604;48.148;-1.786;2023-12-20T01:57:58;10.97;;;3.00;;
16975;SDS011;8604;48.148;-1.786;2023-12-20T02:00:27;9.37;;;2.40;;
16975;SDS011;8604;48.148;-1.786;2023-12-20T02:02:58;8.37;;;2.40;;
16975;SDS011;8604;48.148;-1.786;2023-12-20T02:05:29;10.90;;;2.97;;
16975;SDS011;8604;48.148;-1.786;2023-12-20T02:07:59;12.20;;;3.00;;
16975;SDS011;8604;48.148;-1.786;2023-12-20T02:10:28;11.73;;;2.70;;
16975;SDS011;8604;48.148;-1.786;2023-12-20T02:12:57;10.10;;;2.27;;
16975;SDS011;8604;48.148;-1.786;2023-12-20T02:15:26;7.00;;;2.33;;
16975;SDS011;8604;48.148;-1.786;2023-12-20T02:17:54;9.77;;;2.03;;
16975;SDS011;8604;48.148;-1.786;2023-12-20T02:20:23;11.60;;;2.70;;
16975;SDS011;8604;48.148;-1.786;2023-12-20T02:22:53;7.77;;;2.07;;
16975;SDS011;8604;48.148;-1.786;2023-12-20T02:25:21;12.67;;;2.60;;
16975;SDS011;8604;48.148;-1.786;2023-12-20T02:27:50;10.30;;;2.60;;
16975;SDS011;8604;48.148;-1.786;2023-12-20T02:30:18;9.47;;;2.40;;
16975;SDS011;8604;48.148;-1.786;2023-12-20T02:32:47;10.87;;;2.37;;
16975;SDS011;8604;48.148;-1.786;2023-12-20T02:35:17;11.03;;;2.83;;
16975;SDS011;8604;48.148;-1.786;2023-12-20T02:37:45;8.73;;;2.50;;
16975;SDS011;8604;48.148;-1.786;2023-12-20T02:40:15;10.17;;;2.40;;
16975;SDS011;8604;48.148;-1.786;2023-12-20T02:42:43;6.77;;;2.20;;
16975;SDS011;8604;48.148;-1.786;2023-12-20T02:45:12;8.83;;;2.20;;
16975;SDS011;8604;48.148;-1.786;2023-12-20T02:47:40;10.37;;;2.60;;
16975;SDS011;8604;48.148;-1.786;2023-12-20T02:50:09;7.67;;;2.03;;
16975;SDS011;8604;48.148;-1.786;2023-12-20T02:52:37;6.30;;;2.00;;
16975;SDS011;8604;48.148;-1.786;2023-12-20T02:55:06;10.40;;;2.40;;
16975;SDS011;8604;48.148;-1.786;2023-12-20T02:57:36;10.13;;;2.20;;
16975;SDS011;8604;48.148;-1.786;2023-12-20T03:00:08;7.50;;;2.00;;
16975;SDS011;8604;48.148;-1.786;2023-12-20T03:02:38;10.30;;;2.33;;
16975;SDS011;8604;48.148;-1.786;2023-12-20T03:05:06;9.00;;;2.60;;
16975;SDS011;8604;48.148;-1.786;2023-12-20T03:07:36;9.83;;;2.23;;
16975;SDS011;8604;48.148;-1.786;2023-12-20T03:10:05;10.33;;;2.63;;
16975;SDS011;8604;48.148;-1.786;2023-12-20T03:12:47;12.40;;;2.60;;
16975;SDS011;8604;48.148;-1.786;2023-12-20T03:15:16;10.03;;;2.23;;
16975;SDS011;8604;48.148;-1.786;2023-12-20T03:17:44;7.83;;;2.27;;
16975;SDS011;8604;48.148;-1.786;2023-12-20T03:20:13;8.37;;;2.07;;
16975;SDS011;8604;48.148;-1.786;2023-12-20T03:22:41;9.13;;;2.13;;
16975;SDS011;8604;48.148;-1.786;2023-12-20T03:25:10;11.73;;;2.30;;
16975;SDS011;8604;48.148;-1.786;2023-12-20T03:27:39;10.23;;;2.20;;
16975;SDS011;8604;48.148;-1.786;2023-12-20T03:30:09;5.77;;;2.00;;
16975;SDS011;8604;48.148;-1.786;2023-12-20T03:32:38;11.00;;;2.50;;
16975;SDS011;8604;48.148;-1.786;2023-12-20T03:35:06;6.90;;;2.00;;
16975;SDS011;8604;48.148;-1.786;2023-12-20T03:37:35;7.93;;;2.07;;
16975;SDS011;8604;48.148;-1.786;2023-12-20T03:40:04;9.20;;;2.50;;
16975;SDS011;8604;48.148;-1.786;2023-12-20T03:42:33;8.90;;;1.90;;
16975;SDS011;8604;48.148;-1.786;2023-12-20T03:45:01;9.60;;;2.30;;
16975;SDS011;8604;48.148;-1.786;2023-12-20T03:47:31;10.07;;;2.20;;
16975;SDS011;8604;48.148;-1.786;2023-12-20T03:49:59;10.33;;;2.30;;
16975;SDS011;8604;48.148;-1.786;2023-12-20T03:52:29;9.50;;;2.47;;
16975;SDS011;8604;48.148;-1.786;2023-12-20T03:54:57;7.80;;;2.20;;
16975;SDS011;8604;48.148;-1.786;2023-12-20T03:57:26;6.97;;;2.10;;
16975;SDS011;8604;48.148;-1.786;2023-12-20T03:59:54;8.63;;;2.00;;
16975;SDS011;8604;48.148;-1.786;2023-12-20T04:02:22;9.17;;;2.33;;
16975;SDS011;8604;48.148;-1.786;2023-12-20T04:04:52;6.80;;;1.87;;
16975;SDS011;8604;48.148;-1.786;2023-12-20T04:07:20;6.40;;;2.20;;
16975;SDS011;8604;48.148;-1.786;2023-12-20T04:09:49;9.63;;;1.93;;
16975;SDS011;8604;48.148;-1.786;2023-12-20T04:12:17;7.67;;;2.10;;
16975;SDS011;8604;48.148;-1.786;2023-12-20T04:14:45;9.63;;;2.30;;
16975;SDS011;8604;48.148;-1.786;2023-12-20T04:17:14;8.27;;;2.10;;
16975;SDS011;8604;48.148;-1.786;2023-12-20T04:19:43;6.30;;;2.00;;
16975;SDS011;8604;48.148;-1.786;2023-12-20T04:22:13;7.70;;;2.10;;
16975;SDS011;8604;48.148;-1.786;2023-12-20T04:24:41;6.73;;;1.70;;
16975;SDS011;8604;48.148;-1.786;2023-12-20T04:27:10;7.50;;;2.20;;
16975;SDS011;8604;48.148;-1.786;2023-12-20T04:29:38;9.53;;;2.00;;
16975;SDS011;8604;48.148;-1.786;2023-12-20T04:32:07;6.77;;;2.03;;
16975;SDS011;8604;48.148;-1.786;2023-12-20T04:34:35;8.83;;;2.00;;
16975;SDS011;8604;48.148;-1.786;2023-12-20T04:37:04;10.60;;;2.00;;
16975;SDS011;8604;48.148;-1.786;2023-12-20T04:39:33;7.73;;;2.10;;
16975;SDS011;8604;48.148;-1.786;2023-12-20T04:42:02;5.80;;;1.70;;
16975;SDS011;8604;48.148;-1.786;2023-12-20T04:44:31;8.70;;;2.20;;
16975;SDS011;8604;48.148;-1.786;2023-12-20T04:46:59;7.87;;;2.00;;
16975;SDS011;8604;48.148;-1.786;2023-12-20T04:49:28;7.43;;;1.80;;
16975;SDS011;8604;48.148;-1.786;2023-12-20T04:51:56;8.20;;;1.80;;
16975;SDS011;8604;48.148;-1.786;2023-12-20T04:54:24;8.90;;;2.30;;
16975;SDS011;8604;48.148;-1.786;2023-12-20T04:56:54;9.80;;;2.03;;
16975;SDS011;8604;48.148;-1.786;2023-12-20T04:59:23;10.97;;;2.20;;
16975;SDS011;8604;48.148;-1.786;2023-12-20T05:01:51;6.93;;;2.13;;
16975;SDS011;8604;48.148;-1.786;2023-12-20T05:04:20;10.77;;;2.43;;
16975;SDS011;8604;48.148;-1.786;2023-12-20T05:06:48;8.07;;;2.10;;
16975;SDS011;8604;48.148;-1.786;2023-12-20T05:09:17;11.73;;;2.33;;
16975;SDS011;8604;48.148;-1.786;2023-12-20T05:11:45;9.80;;;2.40;;
16975;SDS011;8604;48.148;-1.786;2023-12-20T05:14:15;8.90;;;2.57;;
16975;SDS011;8604;48.148;-1.786;2023-12-20T05:16:43;7.33;;;2.60;;
16975;SDS011;8604;48.148;-1.786;2023-12-20T05:19:12;9.20;;;2.40;;
16975;SDS011;8604;48.148;-1.786;2023-12-20T05:21:40;7.43;;;2.30;;
16975;SDS011;8604;48.148;-1.786;2023-12-20T05:24:09;9.97;;;2.30;;
16975;SDS011;8604;48.148;-1.786;2023-12-20T05:26:37;7.17;;;2.47;;
16975;SDS011;8604;48.148;-1.786;2023-12-20T05:29:05;9.80;;;2.80;;
16975;SDS011;8604;48.148;-1.786;2023-12-20T05:31:36;6.33;;;1.97;;
16975;SDS011;8604;48.148;-1.786;2023-12-20T05:34:04;8.90;;;2.63;;
16975;SDS011;8604;48.148;-1.786;2023-12-20T05:36:33;9.93;;;2.63;;
16975;SDS011;8604;48.148;-1.786;2023-12-20T05:39:02;10.07;;;2.50;;
16975;SDS011;8604;48.148;-1.786;2023-12-20T05:41:31;8.10;;;2.30;;
16975;SDS011;8604;48.148;-1.786;2023-12-20T05:43:59;7.40;;;2.53;;
16975;SDS011;8604;48.148;-1.786;2023-12-20T05:46:27;7.67;;;2.20;;
16975;SDS011;8604;48.148;-1.786;2023-12-20T05:48:57;10.53;;;2.53;;
16975;SDS011;8604;48.148;-1.786;2023-12-20T05:51:26;9.03;;;2.63;;
16975;SDS011;8604;48.148;-1.786;2023-12-20T05:53:54;9.17;;;2.97;;
16975;SDS011;8604;48.148;-1.786;2023-12-20T05:56:22;10.93;;;2.70;;
16975;SDS011;8604;48.148;-1.786;2023-12-20T05:58:51;8.97;;;2.47;;
16975;SDS011;8604;48.148;-1.786;2023-12-20T06:01:19;9.00;;;2.80;;
16975;SDS011;8604;48.148;-1.786;2023-12-20T06:03:48;11.10;;;2.67;;
16975;SDS011;8604;48.148;-1.786;2023-12-20T06:06:17;9.20;;;3.00;;
16975;SDS011;8604;48.148;-1.786;2023-12-20T06:08:46;9.03;;;2.80;;
16975;SDS011;8604;48.148;-1.786;2023-12-20T06:11:14;7.80;;;2.80;;
16975;SDS011;8604;48.148;-1.786;2023-12-20T06:13:42;8.97;;;2.60;;
16975;SDS011;8604;48.148;-1.786;2023-12-20T06:16:11;11.63;;;2.87;;
16975;SDS011;8604;48.148;-1.786;2023-12-20T06:18:39;6.30;;;2.60;;
16975;SDS011;8604;48.148;-1.786;2023-12-20T06:21:08;10.00;;;2.80;;
16975;SDS011;8604;48.148;-1.786;2023-12-20T06:23:40;7.10;;;2.80;;
16975;SDS011;8604;48.148;-1.786;2023-12-20T06:26:09;9.67;;;2.83;;
16975;SDS011;8604;48.148;-1.786;2023-12-20T06:28:37;11.23;;;2.93;;
16975;SDS011;8604;48.148;-1.786;2023-12-20T06:31:08;8.37;;;2.90;;
16975;SDS011;8604;48.148;-1.786;2023-12-20T06:33:38;8.90;;;2.60;;
16975;SDS011;8604;48.148;-1.786;2023-12-20T06:36:10;8.60;;;2.77;;
16975;SDS011;8604;48.148;-1.786;2023-12-20T06:38:41;9.80;;;2.97;;
16975;SDS011;8604;48.148;-1.786;2023-12-20T06:41:12;10.20;;;3.03;;
16975;SDS011;8604;48.148;-1.786;2023-12-20T06:43:42;8.40;;;2.87;;
16975;SDS011;8604;48.148;-1.786;2023-12-20T06:50:26;11.47;;;2.57;;
16975;SDS011;8604;48.148;-1.786;2023-12-20T06:53:31;9.90;;;3.37;;
16975;SDS011;8604;48.148;-1.786;2023-12-20T06:57:03;11.23;;;2.90;;
16975;SDS011;8604;48.148;-1.786;2023-12-20T07:01:00;12.00;;;3.00;;
16975;SDS011;8604;48.148;-1.786;2023-12-20T07:03:37;8.30;;;2.73;;
16975;SDS011;8604;48.148;-1.786;2023-12-20T07:06:29;10.17;;;3.03;;
16975;SDS011;8604;48.148;-1.786;2023-12-20T07:09:03;13.07;;;3.00;;
16975;SDS011;8604;48.148;-1.786;2023-12-20T07:11:37;12.87;;;2.80;;
16975;SDS011;8604;48.148;-1.786;2023-12-20T07:14:22;10.33;;;3.00;;
16975;SDS011;8604;48.148;-1.786;2023-12-20T07:17:13;10.93;;;3.33;;
16975;SDS011;8604;48.148;-1.786;2023-12-20T07:20:16;9.87;;;2.73;;
16975;SDS011;8604;48.148;-1.786;2023-12-20T07:23:01;10.60;;;2.80;;
16975;SDS011;8604;48.148;-1.786;2023-12-20T07:25:41;8.40;;;2.80;;
16975;SDS011;8604;48.148;-1.786;2023-12-20T07:28:30;9.67;;;3.00;;
16975;SDS011;8604;48.148;-1.786;2023-12-20T07:31:14;10.37;;;3.17;;
16975;SDS011;8604;48.148;-1.786;2023-12-20T07:33:52;11.23;;;3.20;;
16975;SDS011;8604;48.148;-1.786;2023-12-20T07:36:35;9.03;;;2.87;;
16975;SDS011;8604;48.148;-1.786;2023-12-20T07:39:49;9.63;;;2.30;;
16975;SDS011;8604;48.148;-1.786;2023-12-20T07:43:18;10.30;;;2.60;;
16975;SDS011;8604;48.148;-1.786;2023-12-20T07:45:55;8.73;;;2.60;;
16975;SDS011;8604;48.148;-1.786;2023-12-20T07:49:17;7.57;;;2.10;;
16975;SDS011;8604;48.148;-1.786;2023-12-20T07:51:47;9.70;;;2.77;;
16975;SDS011;8604;48.148;-1.786;2023-12-20T07:54:16;10.00;;;2.60;;
16975;SDS011;8604;48.148;-1.786;2023-12-20T07:56:46;11.33;;;3.00;;
16975;SDS011;8604;48.148;-1.786;2023-12-20T07:59:14;7.80;;;2.50;;
16975;SDS011;8604;48.148;-1.786;2023-12-20T08:01:55;9.73;;;2.70;;
16975;SDS011;8604;48.148;-1.786;2023-12-20T08:04:25;11.67;;;2.80;;
16975;SDS011;8604;48.148;-1.786;2023-12-20T08:06:54;7.90;;;2.53;;
16975;SDS011;8604;48.148;-1.786;2023-12-20T08:09:23;14.07;;;3.10;;
16975;SDS011;8604;48.148;-1.786;2023-12-20T08:11:51;9.00;;;2.77;;
16975;SDS011;8604;48.148;-1.786;2023-12-20T08:14:20;12.23;;;2.97;;
16975;SDS011;8604;48.148;-1.786;2023-12-20T08:16:48;8.43;;;2.80;;
16975;SDS011;8604;48.148;-1.786;2023-12-20T08:19:17;8.07;;;3.37;;
16975;SDS011;8604;48.148;-1.786;2023-12-20T08:21:47;10.37;;;4.60;;
16975;SDS011;8604;48.148;-1.786;2023-12-20T08:24:16;10.47;;;4.47;;
16975;SDS011;8604;48.148;-1.786;2023-12-20T08:26:44;12.73;;;4.70;;
16975;SDS011;8604;48.148;-1.786;2023-12-20T08:29:12;10.20;;;3.67;;
16975;SDS011;8604;48.148;-1.786;2023-12-20T08:31:41;10.23;;;3.73;;
16975;SDS011;8604;48.148;-1.786;2023-12-20T08:34:10;9.47;;;3.03;;
16975;SDS011;8604;48.148;-1.786;2023-12-20T08:36:40;10.37;;;2.67;;
16975;SDS011;8604;48.148;-1.786;2023-12-20T08:39:13;10.03;;;2.90;;
16975;SDS011;8604;48.148;-1.786;2023-12-20T08:41:42;10.83;;;2.80;;
16975;SDS011;8604;48.148;-1.786;2023-12-20T08:44:11;9.40;;;2.47;;
16975;SDS011;8604;48.148;-1.786;2023-12-20T08:46:40;12.00;;;2.97;;
16975;SDS011;8604;48.148;-1.786;2023-12-20T08:49:09;9.40;;;3.07;;
16975;SDS011;8604;48.148;-1.786;2023-12-20T08:51:38;10.23;;;2.80;;
16975;SDS011;8604;48.148;-1.786;2023-12-20T08:54:13;13.13;;;3.03;;
16975;SDS011;8604;48.148;-1.786;2023-12-20T08:56:41;9.47;;;2.73;;
16975;SDS011;8604;48.148;-1.786;2023-12-20T08:59:13;11.33;;;3.00;;
16975;SDS011;8604;48.148;-1.786;2023-12-20T09:01:41;8.87;;;2.60;;
16975;SDS011;8604;48.148;-1.786;2023-12-20T09:04:10;10.80;;;2.90;;
16975;SDS011;8604;48.148;-1.786;2023-12-20T09:06:38;11.23;;;2.93;;
16975;SDS011;8604;48.148;-1.786;2023-12-20T09:09:07;10.10;;;3.47;;
16975;SDS011;8604;48.148;-1.786;2023-12-20T09:11:41;12.67;;;3.30;;
16975;SDS011;8604;48.148;-1.786;2023-12-20T09:14:13;10.30;;;3.40;;
16975;SDS011;8604;48.148;-1.786;2023-12-20T09:16:41;9.97;;;3.10;;
16975;SDS011;8604;48.148;-1.786;2023-12-20T09:19:10;10.43;;;3.33;;
16975;SDS011;8604;48.148;-1.786;2023-12-20T09:21:38;11.47;;;3.60;;
16975;SDS011;8604;48.148;-1.786;2023-12-20T09:24:07;12.33;;;3.20;;
16975;SDS011;8604;48.148;-1.786;2023-12-20T09:26:36;10.43;;;3.20;;
16975;SDS011;8604;48.148;-1.786;2023-12-20T09:29:07;11.10;;;3.20;;
16975;SDS011;8604;48.148;-1.786;2023-12-20T09:31:37;10.00;;;2.80;;
16975;SDS011;8604;48.148;-1.786;2023-12-20T09:34:06;8.03;;;2.67;;
16975;SDS011;8604;48.148;-1.786;2023-12-20T09:36:35;9.67;;;3.13;;
16975;SDS011;8604;48.148;-1.786;2023-12-20T09:39:13;11.93;;;3.20;;
16975;SDS011;8604;48.148;-1.786;2023-12-20T09:41:43;8.40;;;2.90;;
16975;SDS011;8604;48.148;-1.786;2023-12-20T09:44:15;9.23;;;2.70;;
16975;SDS011;8604;48.148;-1.786;2023-12-20T09:46:45;9.90;;;3.30;;
16975;SDS011;8604;48.148;-1.786;2023-12-20T09:49:17;9.60;;;2.97;;
16975;SDS011;8604;48.148;-1.786;2023-12-20T09:51:52;9.87;;;2.33;;
16975;SDS011;8604;48.148;-1.786;2023-12-20T09:54:35;11.20;;;2.70;;
16975;SDS011;8604;48.148;-1.786;2023-12-20T09:57:04;15.87;;;3.20;;
16975;SDS011;8604;48.148;-1.786;2023-12-20T09:59:34;10.67;;;3.23;;
16975;SDS011;8604;48.148;-1.786;2023-12-20T10:02:02;11.90;;;3.20;;
16975;SDS011;8604;48.148;-1.786;2023-12-20T10:04:36;11.17;;;3.00;;
16975;SDS011;8604;48.148;-1.786;2023-12-20T10:07:05;12.97;;;3.37;;
16975;SDS011;8604;48.148;-1.786;2023-12-20T10:09:34;13.63;;;3.37;;
16975;SDS011;8604;48.148;-1.786;2023-12-20T10:12:03;11.80;;;3.00;;
16975;SDS011;8604;48.148;-1.786;2023-12-20T10:14:33;9.40;;;2.90;;
16975;SDS011;8604;48.148;-1.786;2023-12-20T10:17:02;15.33;;;3.43;;
16975;SDS011;8604;48.148;-1.786;2023-12-20T10:19:31;12.40;;;2.87;;
16975;SDS011;8604;48.148;-1.786;2023-12-20T10:22:00;11.53;;;3.30;;
16975;SDS011;8604;48.148;-1.786;2023-12-20T10:24:32;11.37;;;3.27;;
16975;SDS011;8604;48.148;-1.786;2023-12-20T10:27:01;11.33;;;3.03;;
16975;SDS011;8604;48.148;-1.786;2023-12-20T10:29:42;12.53;;;3.33;;
16975;SDS011;8604;48.148;-1.786;2023-12-20T10:34:54;13.03;;;3.27;;
16975;SDS011;8604;48.148;-1.786;2023-12-20T10:37:23;14.93;;;3.33;;
16975;SDS011;8604;48.148;-1.786;2023-12-20T10:39:52;13.67;;;3.30;;
16975;SDS011;8604;48.148;-1.786;2023-12-20T10:42:24;10.47;;;3.17;;
16975;SDS011;8604;48.148;-1.786;2023-12-20T10:44:55;11.67;;;3.20;;
16975;SDS011;8604;48.148;-1.786;2023-12-20T10:47:24;11.60;;;3.00;;
16975;SDS011;8604;48.148;-1.786;2023-12-20T10:49:53;14.40;;;3.20;;
16975;SDS011;8604;48.148;-1.786;2023-12-20T10:52:23;10.30;;;3.20;;
16975;SDS011;8604;48.148;-1.786;2023-12-20T10:54:52;12.33;;;3.10;;
16975;SDS011;8604;48.148;-1.786;2023-12-20T10:57:21;12.47;;;2.70;;
16975;SDS011;8604;48.148;-1.786;2023-12-20T10:59:50;19.87;;;3.30;;
16975;SDS011;8604;48.148;-1.786;2023-12-20T11:02:23;13.50;;;3.20;;
16975;SDS011;8604;48.148;-1.786;2023-12-20T11:04:55;13.97;;;3.40;;
16975;SDS011;8604;48.148;-1.786;2023-12-20T11:07:32;17.67;;;3.97;;
16975;SDS011;8604;48.148;-1.786;2023-12-20T11:10:10;13.93;;;3.87;;
16975;SDS011;8604;48.148;-1.786;2023-12-20T11:12:47;13.60;;;4.33;;
16975;SDS011;8604;48.148;-1.786;2023-12-20T11:15:21;14.63;;;3.93;;
16975;SDS011;8604;48.148;-1.786;2023-12-20T11:17:55;14.07;;;4.20;;
16975;SDS011;8604;48.148;-1.786;2023-12-20T11:20:24;15.97;;;4.13;;
16975;SDS011;8604;48.148;-1.786;2023-12-20T11:23:04;15.03;;;4.37;;
16975;SDS011;8604;48.148;-1.786;2023-12-20T11:25:51;14.57;;;4.17;;
16975;SDS011;8604;48.148;-1.786;2023-12-20T11:28:22;13.33;;;4.20;;
16975;SDS011;8604;48.148;-1.786;2023-12-20T11:30:52;13.30;;;3.90;;
16975;SDS011;8604;48.148;-1.786;2023-12-20T11:33:26;14.63;;;3.77;;
16975;SDS011;8604;48.148;-1.786;2023-12-20T11:36:00;18.77;;;4.07;;
16975;SDS011;8604;48.148;-1.786;2023-12-20T11:38:35;14.77;;;3.93;;
16975;SDS011;8604;48.148;-1.786;2023-12-20T11:41:05;12.53;;;3.73;;
16975;SDS011;8604;48.148;-1.786;2023-12-20T11:43:35;13.13;;;3.60;;
16975;SDS011;8604;48.148;-1.786;2023-12-20T11:46:04;17.97;;;4.27;;
16975;SDS011;8604;48.148;-1.786;2023-12-20T11:48:36;16.47;;;3.40;;
16975;SDS011;8604;48.148;-1.786;2023-12-20T11:51:09;13.97;;;3.50;;
16975;SDS011;8604;48.148;-1.786;2023-12-20T11:53:38;15.47;;;3.87;;
16975;SDS011;8604;48.148;-1.786;2023-12-20T11:56:07;15.83;;;4.07;;
16975;SDS011;8604;48.148;-1.786;2023-12-20T11:58:36;12.20;;;3.13;;
16975;SDS011;8604;48.148;-1.786;2023-12-20T12:01:05;12.93;;;3.13;;
16975;SDS011;8604;48.148;-1.786;2023-12-20T12:03:37;14.03;;;2.93;;
16975;SDS011;8604;48.148;-1.786;2023-12-20T12:06:06;12.57;;;3.03;;
16975;SDS011;8604;48.148;-1.786;2023-12-20T12:08:35;11.27;;;2.80;;
16975;SDS011;8604;48.148;-1.786;2023-12-20T12:11:04;9.73;;;2.63;;
16975;SDS011;8604;48.148;-1.786;2023-12-20T12:13:33;10.63;;;2.93;;
16975;SDS011;8604;48.148;-1.786;2023-12-20T12:16:02;12.53;;;3.00;;
16975;SDS011;8604;48.148;-1.786;2023-12-20T12:18:32;14.43;;;3.20;;
16975;SDS011;8604;48.148;-1.786;2023-12-20T12:21:02;13.87;;;3.10;;
16975;SDS011;8604;48.148;-1.786;2023-12-20T12:23:41;12.53;;;2.73;;
16975;SDS011;8604;48.148;-1.786;2023-12-20T12:26:09;14.17;;;3.63;;
16975;SDS011;8604;48.148;-1.786;2023-12-20T12:28:39;10.53;;;2.70;;
16975;SDS011;8604;48.148;-1.786;2023-12-20T12:31:12;11.70;;;3.10;;
16975;SDS011;8604;48.148;-1.786;2023-12-20T12:33:43;12.33;;;2.97;;
16975;SDS011;8604;48.148;-1.786;2023-12-20T12:36:13;11.47;;;3.10;;
16975;SDS011;8604;48.148;-1.786;2023-12-20T12:38:44;12.37;;;3.10;;
16975;SDS011;8604;48.148;-1.786;2023-12-20T12:41:13;12.27;;;2.97;;
16975;SDS011;8604;48.148;-1.786;2023-12-20T12:43:42;14.30;;;3.30;;
16975;SDS011;8604;48.148;-1.786;2023-12-20T12:46:10;12.90;;;3.37;;
16975;SDS011;8604;48.148;-1.786;2023-12-20T12:48:39;12.60;;;3.20;;
16975;SDS011;8604;48.148;-1.786;2023-12-20T12:51:14;10.93;;;2.80;;
16975;SDS011;8604;48.148;-1.786;2023-12-20T12:53:42;11.50;;;3.00;;
16975;SDS011;8604;48.148;-1.786;2023-12-20T12:56:12;13.83;;;2.93;;
16975;SDS011;8604;48.148;-1.786;2023-12-20T12:58:41;13.43;;;3.03;;
16975;SDS011;8604;48.148;-1.786;2023-12-20T13:01:10;11.20;;;2.90;;
16975;SDS011;8604;48.148;-1.786;2023-12-20T13:03:39;10.33;;;2.60;;
16975;SDS011;8604;48.148;-1.786;2023-12-20T13:06:08;11.47;;;2.80;;
16975;SDS011;8604;48.148;-1.786;2023-12-20T13:08:38;14.37;;;3.00;;
16975;SDS011;8604;48.148;-1.786;2023-12-20T13:11:08;15.30;;;3.00;;
16975;SDS011;8604;48.148;-1.786;2023-12-20T13:13:37;9.37;;;2.70;;
16975;SDS011;8604;48.148;-1.786;2023-12-20T13:16:05;10.53;;;2.73;;
16975;SDS011;8604;48.148;-1.786;2023-12-20T13:18:34;10.67;;;3.00;;
16975;SDS011;8604;48.148;-1.786;2023-12-20T13:21:03;13.67;;;2.60;;
16975;SDS011;8604;48.148;-1.786;2023-12-20T13:23:32;9.10;;;2.70;;
16975;SDS011;8604;48.148;-1.786;2023-12-20T13:26:06;8.70;;;2.37;;
16975;SDS011;8604;48.148;-1.786;2023-12-20T13:28:35;9.87;;;2.53;;
16975;SDS011;8604;48.148;-1.786;2023-12-20T13:31:04;10.73;;;2.40;;
16975;SDS011;8604;48.148;-1.786;2023-12-20T13:33:33;8.67;;;2.63;;
16975;SDS011;8604;48.148;-1.786;2023-12-20T13:36:01;10.67;;;2.53;;
16975;SDS011;8604;48.148;-1.786;2023-12-20T13:38:34;11.43;;;2.63;;
16975;SDS011;8604;48.148;-1.786;2023-12-20T13:41:02;7.70;;;2.27;;
16975;SDS011;8604;48.148;-1.786;2023-12-20T13:43:33;11.23;;;2.80;;
16975;SDS011;8604;48.148;-1.786;2023-12-20T13:46:03;8.83;;;2.43;;
16975;SDS011;8604;48.148;-1.786;2023-12-20T13:48:32;10.33;;;2.50;;
16975;SDS011;8604;48.148;-1.786;2023-12-20T13:51:00;11.90;;;2.70;;
16975;SDS011;8604;48.148;-1.786;2023-12-20T13:53:29;13.00;;;2.90;;
16975;SDS011;8604;48.148;-1.786;2023-12-20T13:55:58;8.13;;;2.53;;
16975;SDS011;8604;48.148;-1.786;2023-12-20T13:58:27;7.87;;;2.30;;
16975;SDS011;8604;48.148;-1.786;2023-12-20T14:00:57;12.20;;;2.90;;
16975;SDS011;8604;48.148;-1.786;2023-12-20T14:03:26;10.63;;;2.60;;
16975;SDS011;8604;48.148;-1.786;2023-12-20T14:05:54;14.93;;;3.00;;
16975;SDS011;8604;48.148;-1.786;2023-12-20T14:08:23;8.33;;;2.53;;
16975;SDS011;8604;48.148;-1.786;2023-12-20T14:10:53;9.10;;;2.27;;
16975;SDS011;8604;48.148;-1.786;2023-12-20T14:13:22;9.97;;;2.63;;
16975;SDS011;8604;48.148;-1.786;2023-12-20T14:15:51;8.03;;;2.57;;
16975;SDS011;8604;48.148;-1.786;2023-12-20T14:18:22;9.70;;;3.20;;
16975;SDS011;8604;48.148;-1.786;2023-12-20T14:20:51;13.77;;;5.53;;
16975;SDS011;8604;48.148;-1.786;2023-12-20T14:23:20;12.27;;;4.00;;
16975;SDS011;8604;48.148;-1.786;2023-12-20T14:25:49;10.80;;;4.97;;
16975;SDS011;8604;48.148;-1.786;2023-12-20T14:28:19;10.07;;;3.07;;
16975;SDS011;8604;48.148;-1.786;2023-12-20T14:30:47;12.20;;;3.07;;
16975;SDS011;8604;48.148;-1.786;2023-12-20T14:33:17;10.47;;;2.70;;
16975;SDS011;8604;48.148;-1.786;2023-12-20T14:35:49;11.90;;;5.77;;
16975;SDS011;8604;48.148;-1.786;2023-12-20T14:38:17;9.67;;;3.10;;
16975;SDS011;8604;48.148;-1.786;2023-12-20T14:40:46;8.93;;;3.13;;
16975;SDS011;8604;48.148;-1.786;2023-12-20T14:43:15;9.17;;;2.60;;
16975;SDS011;8604;48.148;-1.786;2023-12-20T14:45:44;10.67;;;4.50;;
16975;SDS011;8604;48.148;-1.786;2023-12-20T14:48:13;13.00;;;5.33;;
16975;SDS011;8604;48.148;-1.786;2023-12-20T14:50:42;10.33;;;3.30;;
16975;SDS011;8604;48.148;-1.786;2023-12-20T15:02:54;9.77;;;3.10;;
16975;SDS011;8604;48.148;-1.786;2023-12-20T15:05:23;12.47;;;2.90;;
16975;SDS011;8604;48.148;-1.786;2023-12-20T15:08:19;10.17;;;3.10;;
16975;SDS011;8604;48.148;-1.786;2023-12-20T15:10:49;11.17;;;3.80;;
16975;SDS011;8604;48.148;-1.786;2023-12-20T15:13:18;11.57;;;3.87;;
16975;SDS011;8604;48.148;-1.786;2023-12-20T15:15:55;10.40;;;2.70;;
16975;SDS011;8604;48.148;-1.786;2023-12-20T15:18:25;9.53;;;2.83;;
16975;SDS011;8604;48.148;-1.786;2023-12-20T15:20:53;10.90;;;2.37;;